Terminal Aerodrome Forecast
Issued by NWS Melbourne, FL

Home | Current Version | Previous Version | Text Only | Print | Product List | Glossary On
Versions: 1 2 3 4 5 6 7 8 9 10 11 12 13 14 15 16 17 18 19 20 21 22 23 24 25 26 27
765
FTUS42 KMLB 231510 AAA
TAFMCO
TAF AMD
KMCO 231510Z 2315/2412 VRB04KT P6SM FEW020 SCT250
      TEMPO 2318/2321 P6SM TS BKN040CB BKN120
     FM232100 09008KT P6SM VCSH SCT040 BKN250
     FM240100 VRB03KT P6SM SCT250=

USA.gov is the U.S. government's official web portal to all federal, state and local government web resources and services.